createdAt,value
2022-09-15T00:02:17.974Z,51.72
2022-09-15T00:07:12.531Z,51.37
2022-09-15T00:12:06.139Z,51.29
2022-09-15T00:16:59.282Z,50.88
2022-09-15T00:21:52.405Z,50.68
2022-09-15T00:26:46.834Z,50.64
2022-09-15T00:31:39.880Z,49.83
2022-09-15T00:36:33.409Z,49.48
2022-09-15T00:41:31.713Z,49.23
2022-09-15T00:46:30.616Z,49.73
2022-09-15T00:51:30.518Z,50.04
2022-09-15T00:56:30.754Z,49.67
2022-09-15T01:01:27.502Z,50.35
2022-09-15T01:06:25.328Z,51.29
2022-09-15T01:11:18.510Z,52.16
2022-09-15T01:16:26.327Z,52.40
2022-09-15T01:21:28.656Z,51.56
2022-09-15T01:26:45.004Z,50.42
2022-09-15T01:31:58.781Z,50.66
2022-09-15T01:37:00.242Z,51.66
2022-09-15T01:41:58.868Z,51.71
2022-09-15T01:46:58.400Z,51.49
2022-09-15T01:51:54.542Z,52.05
2022-09-15T01:56:47.793Z,52.65
2022-09-15T02:01:45.400Z,53.31
2022-09-15T02:06:44.977Z,54.38
2022-09-15T02:11:45.688Z,54.76
2022-09-15T02:16:41.763Z,54.92
2022-09-15T02:21:41.013Z,55.40
2022-09-15T02:26:38.430Z,55.20
2022-09-15T02:31:33.308Z,53.95
2022-09-15T02:36:30.398Z,53.03
2022-09-15T02:41:24.786Z,52.28
2022-09-15T02:46:22.330Z,51.14
2022-09-15T02:51:17.584Z,50.63
2022-09-15T02:56:10.679Z,50.11
2022-09-15T03:01:05.097Z,49.75
2022-09-15T03:06:16.586Z,50.09
2022-09-15T03:11:10.455Z,48.92
2022-09-15T03:16:08.930Z,49.23
2022-09-15T03:21:03.554Z,49.77
2022-09-15T03:25:56.820Z,48.75
2022-09-15T03:30:50.008Z,48.00
2022-09-15T03:35:43.569Z,47.29
2022-09-15T03:40:38.425Z,47.14
2022-09-15T03:45:31.574Z,48.68
2022-09-15T03:50:24.732Z,49.90
2022-09-15T03:55:17.998Z,50.27
2022-09-15T04:00:18.830Z,51.52
2022-09-15T04:05:13.444Z,51.49
2022-09-15T04:10:07.857Z,51.35
2022-09-15T04:15:01.354Z,50.79
2022-09-15T04:19:56.079Z,49.69
2022-09-15T04:24:49.369Z,48.22
2022-09-15T04:29:43.110Z,47.11
2022-09-15T04:34:41.102Z,46.23
2022-09-15T04:39:35.950Z,45.31
2022-09-15T04:44:29.238Z,44.60
2022-09-15T04:49:22.382Z,44.29
2022-09-15T04:54:15.467Z,43.89
2022-09-15T04:59:18.127Z,43.51
2022-09-15T05:04:11.231Z,43.69
2022-09-15T05:09:10.039Z,43.47
2022-09-15T05:14:03.696Z,43.35
2022-09-15T05:19:02.297Z,43.31
2022-09-15T05:23:56.437Z,43.39
2022-09-15T05:28:49.738Z,43.53
2022-09-15T05:33:42.878Z,44.59
2022-09-15T05:38:37.473Z,45.31
2022-09-15T05:43:32.619Z,45.77
2022-09-15T05:48:25.917Z,47.62
2022-09-15T05:53:20.752Z,49.50
2022-09-15T05:58:15.505Z,50.20
2022-09-15T06:03:14.309Z,51.45
2022-09-15T06:08:07.471Z,51.99
2022-09-15T06:13:00.556Z,53.62
2022-09-15T06:17:59.401Z,53.46
2022-09-15T06:22:52.607Z,54.73
2022-09-15T06:27:51.645Z,53.57
2022-09-15T06:32:48.303Z,53.46
2022-09-15T06:37:44.853Z,51.15
2022-09-15T06:42:40.399Z,48.38
2022-09-15T06:47:34.686Z,47.35
2022-09-15T06:52:27.892Z,45.61
2022-09-15T06:57:22.583Z,44.30
2022-09-15T07:02:16.088Z,44.33
2022-09-15T07:07:09.418Z,43.35
2022-09-15T07:12:03.063Z,42.11
2022-09-15T07:16:57.885Z,41.18
2022-09-15T07:21:52.889Z,40.89
2022-09-15T07:26:48.097Z,40.28
2022-09-15T07:31:41.452Z,39.76
2022-09-15T07:36:36.461Z,39.03
2022-09-15T07:41:31.917Z,38.24
2022-09-15T07:46:26.801Z,37.82
2022-09-15T07:51:20.992Z,38.31
2022-09-15T07:56:16.231Z,37.00
2022-09-15T08:01:12.178Z,36.48
2022-09-15T08:06:05.670Z,35.52
2022-09-15T08:10:58.796Z,35.09
2022-09-15T08:15:53.504Z,34.66
2022-09-15T08:20:46.681Z,34.51
2022-09-15T08:25:40.131Z,34.06
2022-09-15T08:30:33.573Z,33.49
2022-09-15T08:35:28.253Z,32.87
2022-09-15T08:40:25.916Z,31.19
2022-09-15T08:45:23.887Z,30.12
2022-09-15T08:50:27.446Z,28.84
2022-09-15T08:55:34.478Z,28.36
2022-09-15T09:00:28.500Z,27.79
2022-09-15T09:05:36.985Z,28.04
2022-09-15T09:10:40.147Z,27.59
2022-09-15T09:15:48.577Z,28.04
2022-09-15T09:20:47.500Z,26.81
2022-09-15T09:25:46.825Z,27.33
2022-09-15T09:30:41.462Z,27.31
2022-09-15T09:35:43.297Z,27.25
2022-09-15T09:40:39.772Z,26.91
2022-09-15T09:45:34.322Z,26.76
2022-09-15T09:50:39.927Z,26.14
2022-09-15T09:55:33.241Z,26.54
2022-09-15T10:00:36.457Z,26.59
2022-09-15T10:05:29.706Z,25.95
2022-09-15T10:10:25.304Z,25.72
2022-09-15T10:15:24.572Z,25.46
2022-09-15T10:20:33.464Z,26.45
2022-09-15T10:25:55.216Z,25.39
2022-09-15T10:31:01.710Z,24.33
2022-09-15T10:36:02.257Z,24.44
2022-09-15T10:41:01.681Z,24.51
2022-09-15T10:46:03.029Z,23.42
2022-09-15T10:51:05.794Z,23.69
2022-09-15T10:56:09.117Z,23.60
2022-09-15T11:01:12.012Z,24.26
2022-09-15T11:06:18.578Z,22.77
2022-09-15T11:11:20.570Z,23.58
2022-09-15T11:16:31.279Z,21.78
2022-09-15T11:21:32.537Z,20.32
2022-09-15T11:26:31.335Z,20.34
2022-09-15T11:31:28.915Z,19.32
2022-09-15T11:36:24.207Z,19.03
2022-09-15T11:41:23.758Z,18.05
2022-09-15T11:46:24.826Z,19.09
2022-09-15T11:51:23.468Z,18.78
2022-09-15T11:56:25.930Z,18.75
2022-09-15T12:01:23.036Z,18.83
2022-09-15T12:06:19.837Z,18.64
2022-09-15T12:11:20.983Z,18.27
2022-09-15T12:16:17.134Z,18.09
2022-09-15T12:21:18.617Z,17.84
2022-09-15T12:26:18.032Z,17.12
2022-09-15T12:31:29.984Z,17.04
2022-09-15T12:36:44.594Z,17.54
2022-09-15T12:41:37.756Z,17.18
2022-09-15T12:46:33.223Z,17.20
2022-09-15T12:51:29.310Z,16.63
2022-09-15T12:56:29.441Z,16.91
2022-09-15T13:01:48.628Z,16.63
2022-09-15T13:06:42.232Z,16.72
2022-09-15T13:11:41.140Z,16.85
2022-09-15T13:16:44.315Z,16.76
2022-09-15T13:21:41.380Z,17.36
2022-09-15T13:26:35.513Z,16.57
2022-09-15T13:31:42.086Z,16.98
2022-09-15T13:42:31.470Z,17.64
2022-09-15T13:47:36.117Z,18.04
2022-09-15T13:52:49.022Z,17.76
2022-09-15T14:03:02.343Z,18.29
2022-09-15T14:08:01.460Z,18.73
2022-09-15T14:12:59.123Z,18.66
2022-09-15T14:17:52.692Z,18.86
2022-09-15T14:22:53.645Z,19.69
2022-09-15T14:27:49.694Z,18.94
2022-09-15T14:32:47.667Z,19.46
2022-09-15T14:37:40.939Z,19.09
2022-09-15T14:42:41.592Z,19.40
2022-09-15T14:47:34.694Z,19.66
2022-09-15T14:52:39.705Z,19.54
2022-09-15T14:57:38.533Z,20.05
2022-09-15T15:02:42.145Z,20.72
2022-09-15T15:07:38.933Z,21.36
2022-09-15T15:12:35.118Z,22.57
2022-09-15T15:17:35.801Z,23.22
2022-09-15T15:22:29.577Z,24.11
2022-09-15T15:27:43.997Z,24.78
2022-09-15T15:32:43.790Z,25.88
2022-09-15T15:37:37.126Z,26.58
2022-09-15T15:42:31.239Z,27.25
2022-09-15T15:47:30.760Z,27.69
2022-09-15T15:52:25.560Z,28.36
2022-09-15T15:57:23.908Z,28.57
2022-09-15T16:02:17.366Z,29.52
2022-09-15T16:07:17.877Z,30.45
2022-09-15T16:12:14.030Z,30.65
2022-09-15T16:17:07.183Z,31.00
2022-09-15T16:22:02.951Z,31.03
2022-09-15T16:26:59.109Z,31.40
2022-09-15T16:31:53.773Z,32.07
2022-09-15T16:36:47.328Z,32.33
2022-09-15T16:41:44.909Z,33.07
2022-09-15T16:46:44.455Z,33.68
2022-09-15T16:51:39.171Z,33.87
2022-09-15T16:56:37.288Z,35.26
2022-09-15T17:01:30.551Z,35.24
2022-09-15T17:06:23.665Z,35.64
2022-09-15T17:11:20.261Z,36.56
2022-09-15T17:16:15.844Z,36.90
2022-09-15T17:21:11.377Z,36.81
2022-09-15T17:26:07.101Z,37.65
2022-09-15T17:31:05.178Z,37.82
2022-09-15T17:36:02.162Z,38.36
2022-09-15T17:40:56.354Z,38.95
2022-09-15T17:45:58.115Z,39.07
2022-09-15T17:50:55.098Z,38.98
2022-09-15T17:55:48.684Z,39.36
2022-09-15T18:00:44.500Z,39.69
2022-09-15T18:05:39.798Z,40.64
2022-09-15T18:10:36.287Z,40.34
2022-09-15T18:15:31.163Z,42.62
2022-09-15T18:20:27.035Z,43.92
2022-09-15T18:25:23.798Z,44.82
2022-09-15T18:30:20.937Z,45.38
2022-09-15T18:35:18.369Z,46.54
2022-09-15T18:40:17.417Z,46.50
2022-09-15T18:45:13.131Z,47.76
2022-09-15T18:50:08.524Z,48.81
2022-09-15T18:55:02.158Z,49.05
2022-09-15T18:59:55.485Z,49.85
2022-09-15T19:04:48.570Z,49.18
2022-09-15T19:09:43.448Z,48.95
2022-09-15T19:14:36.565Z,48.34
2022-09-15T19:19:36.371Z,48.62
2022-09-15T19:24:33.668Z,47.80
2022-09-15T19:29:31.712Z,45.19
2022-09-15T19:34:25.605Z,43.05
2022-09-15T19:39:22.140Z,44.85
2022-09-15T19:44:16.057Z,43.98
2022-09-15T19:49:10.828Z,44.43
2022-09-15T19:54:05.847Z,42.35
2022-09-15T19:59:00.366Z,40.87
2022-09-15T20:03:54.555Z,40.37
2022-09-15T20:08:53.303Z,40.21
2022-09-15T20:13:47.180Z,39.32
2022-09-15T20:18:42.981Z,39.11
2022-09-15T20:23:38.045Z,39.01
2022-09-15T20:28:33.149Z,39.08
2022-09-15T20:33:26.589Z,39.44
2022-09-15T20:38:19.922Z,39.84
2022-09-15T20:43:14.517Z,39.75
2022-09-15T20:48:11.505Z,40.27
2022-09-15T20:53:04.658Z,40.46
2022-09-15T20:57:57.755Z,40.56
2022-09-15T21:02:52.715Z,40.75
2022-09-15T21:07:49.056Z,41.24
2022-09-15T21:12:42.171Z,41.35
2022-09-15T21:17:36.134Z,42.10
2022-09-15T21:22:29.186Z,41.59
2022-09-15T21:27:27.986Z,42.13
2022-09-15T21:32:24.438Z,41.75
2022-09-15T21:37:17.640Z,41.80
2022-09-15T21:42:13.010Z,41.56
2022-09-15T21:47:07.623Z,41.66
2022-09-15T21:52:00.797Z,41.72
2022-09-15T21:56:54.024Z,41.65
2022-09-15T22:01:47.152Z,41.38
2022-09-15T22:06:43.287Z,41.25
2022-09-15T22:11:38.984Z,41.27
2022-09-15T22:16:32.146Z,41.73
2022-09-15T22:21:27.195Z,41.11
2022-09-15T22:26:23.641Z,40.92
2022-09-15T22:31:19.420Z,41.84
2022-09-15T22:36:13.810Z,41.74
2022-09-15T22:41:09.202Z,42.53
2022-09-15T22:46:04.094Z,42.67
2022-09-15T22:50:57.446Z,42.69
2022-09-15T22:55:51.095Z,43.38
2022-09-15T23:00:44.288Z,43.49
2022-09-15T23:05:38.777Z,43.30
2022-09-15T23:10:33.397Z,43.96
2022-09-15T23:15:29.969Z,45.19
2022-09-15T23:20:23.135Z,45.47
2022-09-15T23:25:17.744Z,46.50
2022-09-15T23:30:12.485Z,47.08
2022-09-15T23:35:06.065Z,47.64
2022-09-15T23:39:59.263Z,46.86
2022-09-15T23:44:53.845Z,46.79
2022-09-15T23:49:47.015Z,46.54
2022-09-15T23:54:46.319Z,46.44
2022-09-15T23:59:39.260Z,46.50
